Time;durP1;ratioP1;P1;durP2;ratioP2;P2;SDS_P1;SDS_P2;PMS_P1;PMS_P2;Temp;Humidity;BMP_temperature;BMP_pressure;BME280_temperature;BME280_humidity;BME280_pressure;Samples;Min_cycle;Max_cycle;Signal;HPM_P1;HPM_P2
2023/01/25 00:01:57;;;;;;;66.10;22.55;;;;;;;;;;5021604;28;20045;-72
2023/01/25 00:04:23;;;;;;;94.45;24.55;;;;;;;;;;5015251;28;20018;-73
2023/01/25 00:06:48;;;;;;;108.60;26.10;;;;;;;;;;5027720;28;20402;-72
2023/01/25 00:09:15;;;;;;;117.97;25.55;;;;;;;;;;5022170;28;20083;-72
2023/01/25 00:11:41;;;;;;;114.28;26.67;;;;;;;;;;5030001;28;20026;-73
2023/01/25 00:14:08;;;;;;;93.30;26.63;;;;;;;;;;5031212;28;20073;-72
2023/01/25 00:16:33;;;;;;;135.60;27.73;;;;;;;;;;5027536;28;20128;-73
2023/01/25 00:18:58;;;;;;;151.88;28.50;;;;;;;;;;5033988;28;20112;-73
2023/01/25 00:21:25;;;;;;;109.20;24.15;;;;;;;;;;5020931;28;20044;-72
2023/01/25 00:23:51;;;;;;;126.22;23.13;;;;;;;;;;5024513;28;20477;-72
2023/01/25 00:26:17;;;;;;;111.57;23.85;;;;;;;;;;5023845;28;20180;-73
2023/01/25 00:28:43;;;;;;;136.15;25.73;;;;;;;;;;5027914;28;20120;-72
2023/01/25 00:31:10;;;;;;;117.50;24.65;;;;;;;;;;5028578;28;20199;-72
2023/01/25 00:33:36;;;;;;;88.10;22.08;;;;;;;;;;5029970;28;20164;-73
2023/01/25 00:36:02;;;;;;;130.18;24.15;;;;;;;;;;5028502;28;20120;-72
2023/01/25 00:38:33;;;;;;;116.97;24.98;;;;;;;;;;5033056;28;20048;-73
2023/01/25 00:40:59;;;;;;;131.75;23.75;;;;;;;;;;5042776;28;20025;-72
2023/01/25 00:43:25;;;;;;;90.85;22.90;;;;;;;;;;5018200;28;20044;-73
2023/01/25 00:45:50;;;;;;;79.47;21.38;;;;;;;;;;5023140;28;20041;-73
2023/01/25 00:48:16;;;;;;;109.45;24.92;;;;;;;;;;5022504;28;20533;-74
2023/01/25 00:50:41;;;;;;;111.65;22.52;;;;;;;;;;5025206;28;20041;-73
2023/01/25 00:53:06;;;;;;;108.05;23.27;;;;;;;;;;5023507;28;20084;-73
2023/01/25 00:55:32;;;;;;;96.20;24.80;;;;;;;;;;5030351;28;20033;-73
2023/01/25 00:57:57;;;;;;;96.05;22.63;;;;;;;;;;5016968;28;20034;-72
2023/01/25 01:00:22;;;;;;;94.15;23.55;;;;;;;;;;5025869;28;20072;-74
2023/01/25 01:02:48;;;;;;;270.55;26.73;;;;;;;;;;5016869;28;20432;-72
2023/01/25 01:05:13;;;;;;;200.82;28.20;;;;;;;;;;5023560;28;20033;-73
2023/01/25 01:07:39;;;;;;;196.93;26.75;;;;;;;;;;5020430;28;20033;-72
2023/01/25 01:10:05;;;;;;;114.97;23.17;;;;;;;;;;5023055;28;20025;-73
2023/01/25 01:12:30;;;;;;;100.63;23.17;;;;;;;;;;5019018;28;20076;-73
2023/01/25 01:14:56;;;;;;;87.03;23.75;;;;;;;;;;5026209;28;20061;-73
2023/01/25 01:17:21;;;;;;;123.70;25.60;;;;;;;;;;5025608;28;20030;-72
2023/01/25 01:19:47;;;;;;;141.02;24.70;;;;;;;;;;5025511;28;20041;-72
2023/01/25 01:22:12;;;;;;;175.57;24.25;;;;;;;;;;5015966;28;20049;-73
2023/01/25 01:24:38;;;;;;;92.05;22.77;;;;;;;;;;5030638;28;20029;-72
2023/01/25 01:27:03;;;;;;;119.90;24.52;;;;;;;;;;5018205;28;20048;-72
2023/01/25 01:29:29;;;;;;;112.95;23.13;;;;;;;;;;5015814;28;20037;-73
2023/01/25 01:31:55;;;;;;;122.25;22.90;;;;;;;;;;5028654;28;20029;-72
2023/01/25 01:34:20;;;;;;;124.65;24.42;;;;;;;;;;5022978;28;20381;-72
2023/01/25 01:36:46;;;;;;;194.27;26.65;;;;;;;;;;5018573;28;20033;-72
2023/01/25 01:39:12;;;;;;;103.00;23.63;;;;;;;;;;5029949;28;20113;-73
2023/01/25 01:41:37;;;;;;;75.47;21.70;;;;;;;;;;5027431;28;20401;-73
2023/01/25 01:44:04;;;;;;;116.60;24.58;;;;;;;;;;5028508;28;20045;-73
2023/01/25 01:46:36;;;;;;;179.55;26.98;;;;;;;;;;5036001;28;20105;-72
2023/01/25 01:49:24;;;;;;;139.85;23.85;;;;;;;;;;5021847;28;20060;-73
2023/01/25 01:52:01;;;;;;;139.40;22.92;;;;;;;;;;5020353;28;20088;-73
2023/01/25 01:54:34;;;;;;;93.60;21.48;;;;;;;;;;5026746;28;20076;-73
2023/01/25 01:57:15;;;;;;;195.45;24.95;;;;;;;;;;5023384;28;20066;-72
2023/01/25 01:59:47;;;;;;;95.68;22.17;;;;;;;;;;5020263;28;20065;-73
2023/01/25 02:02:14;;;;;;;334.27;31.50;;;;;;;;;;5023552;28;20052;-74
2023/01/25 02:04:41;;;;;;;192.52;25.80;;;;;;;;;;5022493;28;20120;-73
2023/01/25 02:07:14;;;;;;;63.03;20.23;;;;;;;;;;5018280;28;20065;-73
2023/01/25 02:09:40;;;;;;;269.17;28.90;;;;;;;;;;5024101;28;20048;-73
2023/01/25 02:12:06;;;;;;;88.40;20.58;;;;;;;;;;5014290;28;20483;-73
2023/01/25 02:14:32;;;;;;;66.53;21.50;;;;;;;;;;5020568;28;20046;-73
2023/01/25 02:16:58;;;;;;;150.13;24.27;;;;;;;;;;5026298;28;20033;-73
2023/01/25 02:19:37;;;;;;;257.00;28.42;;;;;;;;;;5025718;28;20492;-73
2023/01/25 02:22:09;;;;;;;148.10;21.88;;;;;;;;;;5013017;28;20100;-72
2023/01/25 02:24:37;;;;;;;106.15;22.60;;;;;;;;;;5013841;28;20037;-73
2023/01/25 02:27:03;;;;;;;136.05;23.25;;;;;;;;;;5012908;28;20018;-73
2023/01/25 02:29:28;;;;;;;80.32;19.85;;;;;;;;;;5031403;28;20087;-73
2023/01/25 02:32:04;;;;;;;121.50;23.20;;;;;;;;;;5020213;28;20084;-73
2023/01/25 02:34:30;;;;;;;132.73;23.85;;;;;;;;;;5021240;28;20485;-72
2023/01/25 02:36:55;;;;;;;169.52;26.05;;;;;;;;;;5015974;28;20045;-73
2023/01/25 02:39:24;;;;;;;137.27;25.02;;;;;;;;;;5028704;28;20034;-74
2023/01/25 02:41:50;;;;;;;172.35;26.08;;;;;;;;;;5017544;28;20084;-73
2023/01/25 02:44:27;;;;;;;233.43;26.70;;;;;;;;;;5025199;28;20041;-74
2023/01/25 02:46:53;;;;;;;208.88;24.92;;;;;;;;;;5025126;28;20041;-73
2023/01/25 02:49:19;;;;;;;215.85;24.45;;;;;;;;;;5022438;28;20026;-73
2023/01/25 02:51:47;;;;;;;102.78;21.85;;;;;;;;;;5023876;28;20065;-73
2023/01/25 02:54:15;;;;;;;66.28;18.48;;;;;;;;;;5023873;28;20041;-73
2023/01/25 02:56:40;;;;;;;66.10;19.35;;;;;;;;;;5040754;28;20485;-73
2023/01/25 02:59:07;;;;;;;81.18;20.25;;;;;;;;;;5025500;28;20116;-72
2023/01/25 03:01:34;;;;;;;93.43;20.75;;;;;;;;;;5025271;28;20397;-72
2023/01/25 03:03:59;;;;;;;85.13;21.08;;;;;;;;;;5028332;28;20038;-73
2023/01/25 03:06:24;;;;;;;124.43;21.55;;;;;;;;;;5023951;28;20032;-73
2023/01/25 03:08:50;;;;;;;200.07;24.00;;;;;;;;;;5023609;28;20038;-73
2023/01/25 03:11:15;;;;;;;231.13;26.52;;;;;;;;;;5026318;28;20068;-74
2023/01/25 03:13:41;;;;;;;112.65;21.92;;;;;;;;;;5024046;28;20053;-73
2023/01/25 03:16:09;;;;;;;77.55;21.15;;;;;;;;;;5025900;28;20468;-73
2023/01/25 03:18:35;;;;;;;84.57;20.48;;;;;;;;;;5018529;28;20605;-73
2023/01/25 03:21:17;;;;;;;74.40;20.88;;;;;;;;;;5028233;28;20091;-73
2023/01/25 03:23:44;;;;;;;79.32;18.88;;;;;;;;;;5016743;28;20065;-73
2023/01/25 03:26:15;;;;;;;103.80;19.70;;;;;;;;;;5029051;28;20037;-72
2023/01/25 03:28:41;;;;;;;67.68;17.60;;;;;;;;;;5024999;28;20041;-72
2023/01/25 03:31:09;;;;;;;106.95;19.85;;;;;;;;;;5023654;28;20040;-73
2023/01/25 03:33:35;;;;;;;84.68;20.23;;;;;;;;;;5024907;28;20026;-73
2023/01/25 03:36:00;;;;;;;106.80;20.60;;;;;;;;;;5024769;28;20041;-73
2023/01/25 03:38:26;;;;;;;74.35;19.90;;;;;;;;;;5020192;28;20037;-74
2023/01/25 03:40:52;;;;;;;67.80;20.02;;;;;;;;;;5020587;28;20369;-72
2023/01/25 03:43:17;;;;;;;88.40;19.25;;;;;;;;;;5021631;28;20033;-72
2023/01/25 03:45:43;;;;;;;66.82;19.95;;;;;;;;;;5022595;28;20077;-73
2023/01/25 03:48:08;;;;;;;92.85;19.63;;;;;;;;;;5024886;28;20036;-73
2023/01/25 03:50:34;;;;;;;133.25;21.73;;;;;;;;;;5021255;28;20498;-73
2023/01/25 03:53:06;;;;;;;82.22;18.25;;;;;;;;;;5019036;28;20037;-73
2023/01/25 03:55:33;;;;;;;103.28;18.10;;;;;;;;;;5020319;28;20037;-73
2023/01/25 03:57:58;;;;;;;64.75;15.65;;;;;;;;;;5019496;28;20050;-73
2023/01/25 04:00:24;;;;;;;87.45;17.55;;;;;;;;;;5015834;28;20046;-73
2023/01/25 04:02:49;;;;;;;64.85;17.13;;;;;;;;;;5022918;28;20056;-73
2023/01/25 04:05:15;;;;;;;209.43;22.75;;;;;;;;;;5026418;28;20049;-74
2023/01/25 04:07:40;;;;;;;73.50;16.50;;;;;;;;;;5018234;28;20053;-73
2023/01/25 04:10:06;;;;;;;57.58;16.30;;;;;;;;;;5014501;28;20029;-74
2023/01/25 04:12:32;;;;;;;294.15;25.00;;;;;;;;;;5026962;28;20060;-73
2023/01/25 04:14:57;;;;;;;62.67;16.63;;;;;;;;;;5015879;28;20044;-73
2023/01/25 04:17:22;;;;;;;72.80;17.52;;;;;;;;;;5018800;28;20034;-73
2023/01/25 04:19:48;;;;;;;140.20;20.13;;;;;;;;;;5014342;28;20055;-73
2023/01/25 04:22:13;;;;;;;151.38;20.05;;;;;;;;;;5022071;28;20083;-73
2023/01/25 04:24:39;;;;;;;47.65;18.02;;;;;;;;;;5016933;28;20026;-73
2023/01/25 04:27:05;;;;;;;63.67;18.45;;;;;;;;;;5028338;28;20036;-73
2023/01/25 04:29:30;;;;;;;75.15;18.65;;;;;;;;;;5018393;28;20125;-73
2023/01/25 04:31:55;;;;;;;64.38;16.30;;;;;;;;;;5025956;28;20046;-73
2023/01/25 04:34:21;;;;;;;104.18;17.58;;;;;;;;;;5023878;28;20041;-72
2023/01/25 04:36:46;;;;;;;52.85;15.95;;;;;;;;;;5023049;28;20042;-73
2023/01/25 04:39:12;;;;;;;50.65;15.52;;;;;;;;;;5020637;28;20022;-73
2023/01/25 04:41:38;;;;;;;99.45;15.35;;;;;;;;;;5027971;28;20183;-73
2023/01/25 04:44:03;;;;;;;70.78;14.80;;;;;;;;;;5026620;28;20441;-73
2023/01/25 04:46:28;;;;;;;105.50;15.95;;;;;;;;;;5023552;28;20048;-74
2023/01/25 04:48:54;;;;;;;209.65;20.23;;;;;;;;;;5024047;28;20171;-73
2023/01/25 04:51:19;;;;;;;112.03;17.02;;;;;;;;;;5028255;28;20042;-73
2023/01/25 04:53:45;;;;;;;132.13;16.75;;;;;;;;;;5024252;28;20108;-73
2023/01/25 04:56:10;;;;;;;137.27;16.80;;;;;;;;;;5028863;28;20037;-72
2023/01/25 04:58:36;;;;;;;97.55;16.15;;;;;;;;;;5025275;28;20517;-72
2023/01/25 05:01:02;;;;;;;228.32;21.25;;;;;;;;;;5027178;28;20038;-72
2023/01/25 05:03:28;;;;;;;99.10;17.75;;;;;;;;;;5018794;28;20030;-73
2023/01/25 05:05:53;;;;;;;143.43;19.38;;;;;;;;;;5024085;28;20040;-72
2023/01/25 05:08:19;;;;;;;160.55;21.80;;;;;;;;;;5020784;28;20121;-72
2023/01/25 05:10:45;;;;;;;93.22;18.85;;;;;;;;;;5025615;28;20044;-72
2023/01/25 05:13:10;;;;;;;261.85;25.35;;;;;;;;;;5030678;28;20060;-72
2023/01/25 05:15:35;;;;;;;247.73;23.13;;;;;;;;;;5031687;28;20060;-73
2023/01/25 05:18:01;;;;;;;135.52;19.20;;;;;;;;;;5018839;28;20050;-72
2023/01/25 05:20:27;;;;;;;104.63;18.17;;;;;;;;;;5017583;28;20049;-72
2023/01/25 05:22:52;;;;;;;84.45;18.48;;;;;;;;;;5021315;28;20035;-72
2023/01/25 05:28:06;;;;;;;42.17;14.90;;;;;;;;;;5025537;28;20163;-72
2023/01/25 05:30:32;;;;;;;58.13;12.85;;;;;;;;;;5013838;28;20045;-73
2023/01/25 05:32:57;;;;;;;59.42;11.55;;;;;;;;;;5022127;28;20064;-72
2023/01/25 05:35:23;;;;;;;186.60;17.02;;;;;;;;;;5022084;28;20095;-74
2023/01/25 05:37:48;;;;;;;64.85;12.63;;;;;;;;;;5017589;28;20045;-72
2023/01/25 05:40:14;;;;;;;102.68;11.80;;;;;;;;;;5022836;28;20041;-74
2023/01/25 05:42:39;;;;;;;108.03;11.63;;;;;;;;;;5021797;28;20033;-73
2023/01/25 05:45:06;;;;;;;131.05;12.85;;;;;;;;;;5014792;28;20057;-73
2023/01/25 05:47:31;;;;;;;163.70;12.98;;;;;;;;;;5019181;28;20042;-72
2023/01/25 05:49:56;;;;;;;230.18;16.30;;;;;;;;;;5018676;28;20032;-72
2023/01/25 05:52:22;;;;;;;219.90;17.65;;;;;;;;;;5013908;28;20042;-72
2023/01/25 05:54:47;;;;;;;187.07;17.50;;;;;;;;;;5020292;28;20048;-73
2023/01/25 05:57:13;;;;;;;167.60;12.73;;;;;;;;;;5014905;28;20057;-72
2023/01/25 05:59:39;;;;;;;158.50;13.45;;;;;;;;;;5014155;28;20441;-72
2023/01/25 06:02:04;;;;;;;89.63;14.50;;;;;;;;;;5020278;28;20113;-73
2023/01/25 06:04:30;;;;;;;134.80;16.10;;;;;;;;;;5019508;28;20121;-73
2023/01/25 06:06:55;;;;;;;99.75;14.48;;;;;;;;;;5023325;28;20042;-72
2023/01/25 06:09:22;;;;;;;137.73;11.23;;;;;;;;;;5026470;28;20092;-73
2023/01/25 06:11:47;;;;;;;166.88;11.52;;;;;;;;;;5027431;28;20032;-74
2023/01/25 06:14:13;;;;;;;198.88;13.25;;;;;;;;;;5020897;28;20116;-72
2023/01/25 06:16:38;;;;;;;136.63;13.93;;;;;;;;;;5034372;28;20428;-73
2023/01/25 06:19:05;;;;;;;74.53;12.70;;;;;;;;;;5024987;28;20416;-72
2023/01/25 06:21:31;;;;;;;111.60;12.85;;;;;;;;;;5021680;28;20510;-74
2023/01/25 06:23:56;;;;;;;75.25;11.48;;;;;;;;;;5024515;28;20072;-73
2023/01/25 06:26:22;;;;;;;84.32;10.80;;;;;;;;;;5024804;28;20056;-73
2023/01/25 06:28:47;;;;;;;53.72;10.18;;;;;;;;;;5030107;28;20037;-73
2023/01/25 06:31:14;;;;;;;88.53;11.40;;;;;;;;;;5030315;28;20033;-72
2023/01/25 06:33:40;;;;;;;50.72;10.50;;;;;;;;;;5035583;28;20168;-72
2023/01/25 06:36:12;;;;;;;51.63;10.85;;;;;;;;;;5033091;28;20069;-73
2023/01/25 06:38:38;;;;;;;43.58;11.40;;;;;;;;;;5034193;28;20046;-73
2023/01/25 06:41:06;;;;;;;99.50;12.68;;;;;;;;;;5021888;28;20034;-72
2023/01/25 06:43:32;;;;;;;38.70;10.88;;;;;;;;;;5026593;28;20046;-73
2023/01/25 06:46:02;;;;;;;46.60;11.15;;;;;;;;;;5033612;28;20046;-73
2023/01/25 06:48:30;;;;;;;56.90;12.70;;;;;;;;;;5009045;28;20120;-73
2023/01/25 06:51:01;;;;;;;42.38;11.60;;;;;;;;;;5025401;28;20064;-73
2023/01/25 06:53:31;;;;;;;53.15;13.10;;;;;;;;;;5020880;28;20042;-74
2023/01/25 06:55:58;;;;;;;52.47;15.15;;;;;;;;;;5047826;28;20037;-73
2023/01/25 06:58:24;;;;;;;45.03;13.32;;;;;;;;;;5029963;28;20025;-73
2023/01/25 07:00:50;;;;;;;67.57;13.90;;;;;;;;;;5030098;28;20056;-73
2023/01/25 07:03:15;;;;;;;49.00;12.88;;;;;;;;;;5024864;28;20037;-73
2023/01/25 07:05:40;;;;;;;46.92;13.50;;;;;;;;;;5023172;28;20386;-72
2023/01/25 07:08:06;;;;;;;59.17;13.30;;;;;;;;;;5018776;28;20052;-72
2023/01/25 07:10:31;;;;;;;53.88;12.40;;;;;;;;;;5023472;28;20068;-73
2023/01/25 07:12:57;;;;;;;34.22;10.55;;;;;;;;;;5027195;28;20594;-73
2023/01/25 07:15:22;;;;;;;40.58;12.02;;;;;;;;;;5020944;28;20034;-73
2023/01/25 07:17:48;;;;;;;52.53;12.13;;;;;;;;;;5020174;28;20363;-73
2023/01/25 07:20:13;;;;;;;50.47;13.10;;;;;;;;;;5015762;28;20542;-73
2023/01/25 07:22:38;;;;;;;41.70;11.68;;;;;;;;;;5015709;28;20034;-74
2023/01/25 07:25:05;;;;;;;48.65;11.18;;;;;;;;;;5019818;28;20037;-73
2023/01/25 07:27:34;;;;;;;53.97;12.35;;;;;;;;;;5015453;28;20041;-73
2023/01/25 07:29:59;;;;;;;58.90;13.68;;;;;;;;;;5014862;28;20045;-73
2023/01/25 07:32:25;;;;;;;77.47;12.07;;;;;;;;;;5015234;28;20041;-75
2023/01/25 07:34:50;;;;;;;49.55;11.60;;;;;;;;;;5016546;28;20038;-74
2023/01/25 07:37:16;;;;;;;54.10;12.90;;;;;;;;;;5012898;28;20128;-74
2023/01/25 07:39:47;;;;;;;47.95;12.52;;;;;;;;;;5014900;28;20046;-72
2023/01/25 07:42:12;;;;;;;53.78;12.00;;;;;;;;;;5014116;28;20029;-74
2023/01/25 07:44:38;;;;;;;41.42;11.77;;;;;;;;;;5014373;28;20037;-73
2023/01/25 07:47:03;;;;;;;71.35;12.15;;;;;;;;;;5021793;28;20030;-73
2023/01/25 07:49:28;;;;;;;38.15;10.77;;;;;;;;;;5021016;28;20034;-73
2023/01/25 07:51:54;;;;;;;48.55;11.13;;;;;;;;;;5014730;28;20092;-73
2023/01/25 07:54:19;;;;;;;58.42;12.70;;;;;;;;;;5013247;28;20045;-74
2023/01/25 07:56:45;;;;;;;55.05;11.73;;;;;;;;;;5016255;28;20129;-73
2023/01/25 07:59:10;;;;;;;42.22;12.20;;;;;;;;;;5027538;28;20100;-73
2023/01/25 08:01:36;;;;;;;81.60;12.40;;;;;;;;;;5024426;28;20063;-73
2023/01/25 08:04:02;;;;;;;58.35;13.20;;;;;;;;;;5017387;28;20383;-73
2023/01/25 08:06:34;;;;;;;62.58;12.60;;;;;;;;;;5021073;28;20385;-73
2023/01/25 08:09:02;;;;;;;38.88;12.63;;;;;;;;;;5018982;28;20045;-73
2023/01/25 08:11:29;;;;;;;57.65;14.82;;;;;;;;;;5018109;28;20026;-73
2023/01/25 08:13:54;;;;;;;43.53;13.65;;;;;;;;;;5020725;28;20120;-74
2023/01/25 08:16:23;;;;;;;49.97;13.30;;;;;;;;;;5019142;28;20113;-73
2023/01/25 08:18:54;;;;;;;54.40;13.98;;;;;;;;;;5021244;28;20385;-73
2023/01/25 08:21:20;;;;;;;48.63;13.15;;;;;;;;;;5037083;28;20040;-73
2023/01/25 08:23:45;;;;;;;46.17;13.07;;;;;;;;;;5015667;28;20152;-73
2023/01/25 08:26:13;;;;;;;60.38;14.38;;;;;;;;;;5017721;28;20049;-74
2023/01/25 08:28:38;;;;;;;49.30;13.88;;;;;;;;;;5023907;28;20450;-73
2023/01/25 08:31:11;;;;;;;51.30;13.93;;;;;;;;;;5021495;28;20120;-73
2023/01/25 08:33:37;;;;;;;57.10;15.40;;;;;;;;;;5013104;28;20037;-73
2023/01/25 08:36:03;;;;;;;44.20;12.95;;;;;;;;;;5042882;28;20037;-73
2023/01/25 08:38:28;;;;;;;46.03;13.85;;;;;;;;;;5024398;28;20030;-73
2023/01/25 08:40:54;;;;;;;47.65;13.52;;;;;;;;;;5032077;28;20421;-73
2023/01/25 08:43:19;;;;;;;41.75;12.73;;;;;;;;;;5021932;28;20465;-73
2023/01/25 08:45:45;;;;;;;44.78;12.27;;;;;;;;;;5022886;28;20100;-72
2023/01/25 08:48:14;;;;;;;39.97;12.23;;;;;;;;;;5008060;28;20474;-74
2023/01/25 08:50:45;;;;;;;39.38;12.40;;;;;;;;;;5019625;28;20179;-73
2023/01/25 08:53:11;;;;;;;45.20;13.20;;;;;;;;;;5019464;28;20021;-74
2023/01/25 08:55:36;;;;;;;66.10;13.05;;;;;;;;;;5025902;28;20504;-73
2023/01/25 08:58:01;;;;;;;60.10;13.43;;;;;;;;;;5027834;28;20113;-73
2023/01/25 09:00:27;;;;;;;41.13;14.13;;;;;;;;;;5026746;28;20021;-73
2023/01/25 09:02:52;;;;;;;40.30;12.80;;;;;;;;;;5019276;28;20495;-73
2023/01/25 09:05:18;;;;;;;47.88;13.15;;;;;;;;;;5018888;28;20032;-73
2023/01/25 09:07:44;;;;;;;48.20;14.65;;;;;;;;;;5008340;28;20975;-73
2023/01/25 09:10:09;;;;;;;56.45;15.65;;;;;;;;;;5015167;28;20165;-73
2023/01/25 09:12:35;;;;;;;56.88;16.35;;;;;;;;;;5012815;28;20030;-73
2023/01/25 09:15:02;;;;;;;55.22;16.23;;;;;;;;;;5013674;28;20033;-73
2023/01/25 09:17:27;;;;;;;72.40;22.38;;;;;;;;;;5011207;28;20096;-73
2023/01/25 09:19:53;;;;;;;74.50;23.50;;;;;;;;;;5018756;28;20034;-73
2023/01/25 09:22:18;;;;;;;69.35;20.33;;;;;;;;;;5010863;28;20029;-73
2023/01/25 09:24:43;;;;;;;60.53;20.75;;;;;;;;;;5019143;28;20048;-73
2023/01/25 09:27:09;;;;;;;65.85;20.23;;;;;;;;;;5014450;28;20478;-73
2023/01/25 09:29:34;;;;;;;59.67;20.33;;;;;;;;;;5017465;28;20037;-73
2023/01/25 09:32:00;;;;;;;50.22;16.77;;;;;;;;;;5019637;28;20041;-73
2023/01/25 09:34:25;;;;;;;58.15;16.65;;;;;;;;;;5022769;28;20049;-73
2023/01/25 09:36:50;;;;;;;51.35;16.48;;;;;;;;;;5018167;28;20037;-73
2023/01/25 09:39:16;;;;;;;49.63;16.40;;;;;;;;;;5026070;28;20037;-74
2023/01/25 09:42:00;;;;;;;51.63;17.08;;;;;;;;;;5022369;28;20115;-73
2023/01/25 09:45:00;;;;;;;50.20;16.83;;;;;;;;;;5022770;28;20057;-74
2023/01/25 09:48:19;;;;;;;52.92;17.50;;;;;;;;;;4994711;28;20030;-74
2023/01/25 09:50:47;;;;;;;47.92;16.98;;;;;;;;;;5030630;28;20748;-73
2023/01/25 09:53:23;;;;;;;51.30;17.30;;;;;;;;;;5042567;28;20472;-74
2023/01/25 09:55:54;;;;;;;66.10;21.58;;;;;;;;;;5028892;28;20060;-75
2023/01/25 09:58:24;;;;;;;88.72;23.63;;;;;;;;;;5019462;28;20044;-74
2023/01/25 10:00:53;;;;;;;73.03;24.88;;;;;;;;;;5008247;28;20046;-73
2023/01/25 10:03:26;;;;;;;86.30;26.73;;;;;;;;;;5018428;28;20038;-73
2023/01/25 10:05:55;;;;;;;113.60;20.45;;;;;;;;;;4997885;28;20045;-74
2023/01/25 10:08:25;;;;;;;85.85;18.20;;;;;;;;;;5017834;28;20048;-74
2023/01/25 10:10:59;;;;;;;68.00;16.80;;;;;;;;;;5023783;28;20048;-73
2023/01/25 10:13:30;;;;;;;91.30;19.95;;;;;;;;;;5015172;28;20092;-73
2023/01/25 10:16:05;;;;;;;92.68;17.77;;;;;;;;;;5021625;28;20509;-74
2023/01/25 10:18:39;;;;;;;168.27;16.50;;;;;;;;;;5014873;28;20489;-73
2023/01/25 10:21:10;;;;;;;88.03;13.88;;;;;;;;;;5017406;28;20112;-73
2023/01/25 10:23:47;;;;;;;85.15;16.88;;;;;;;;;;5015713;28;20128;-73
2023/01/25 10:26:19;;;;;;;71.65;16.42;;;;;;;;;;5016661;28;20046;-74
2023/01/25 10:28:50;;;;;;;79.15;18.40;;;;;;;;;;5018197;28;20048;-74
2023/01/25 10:31:17;;;;;;;75.22;19.13;;;;;;;;;;5018690;28;20041;-73
2023/01/25 10:33:45;;;;;;;56.13;16.38;;;;;;;;;;5019462;28;20033;-73
2023/01/25 10:36:22;;;;;;;59.97;21.23;;;;;;;;;;5021207;28;20087;-74
2023/01/25 10:38:48;;;;;;;56.72;17.15;;;;;;;;;;5014438;28;20038;-73
2023/01/25 10:41:25;;;;;;;52.80;15.23;;;;;;;;;;5017198;28;20492;-73
2023/01/25 10:44:20;;;;;;;50.15;15.43;;;;;;;;;;5021780;28;20068;-73
2023/01/25 10:46:37;;;;;;;42.40;14.45;;;;;;;;;;5015979;28;20054;-79
2023/01/25 10:49:17;;;;;;;57.88;15.68;;;;;;;;;;5017824;28;20470;-73
2023/01/25 10:51:42;;;;;;;43.45;14.70;;;;;;;;;;4998691;28;20042;-74
2023/01/25 10:54:14;;;;;;;38.78;15.63;;;;;;;;;;5015302;28;20037;-73
2023/01/25 10:56:40;;;;;;;41.45;15.75;;;;;;;;;;5015376;28;20042;-74
2023/01/25 10:59:17;;;;;;;45.20;15.15;;;;;;;;;;5017151;28;20508;-73
2023/01/25 11:01:43;;;;;;;51.70;15.90;;;;;;;;;;5016274;28;20064;-74
2023/01/25 11:04:31;;;;;;;48.80;15.82;;;;;;;;;;5017119;28;20038;-73
2023/01/25 11:06:57;;;;;;;39.58;14.77;;;;;;;;;;5018214;28;20432;-73
2023/01/25 11:09:34;;;;;;;59.88;16.45;;;;;;;;;;5034307;28;20026;-73
2023/01/25 11:12:06;;;;;;;44.97;17.38;;;;;;;;;;5024272;28;20032;-73
2023/01/25 11:14:32;;;;;;;53.22;17.90;;;;;;;;;;5015332;28;20100;-74
2023/01/25 11:16:59;;;;;;;52.50;16.58;;;;;;;;;;5015658;28;20759;-73
2023/01/25 11:19:38;;;;;;;50.38;17.50;;;;;;;;;;5011197;28;20069;-74
2023/01/25 11:22:18;;;;;;;45.67;15.55;;;;;;;;;;5024325;28;20121;-74
2023/01/25 11:24:44;;;;;;;54.33;17.75;;;;;;;;;;5023404;28;20504;-74
2023/01/25 11:27:12;;;;;;;40.47;16.13;;;;;;;;;;5009412;28;20046;-73
2023/01/25 11:29:38;;;;;;;49.90;16.55;;;;;;;;;;5015129;28;20485;-73
2023/01/25 11:32:14;;;;;;;37.97;14.82;;;;;;;;;;5013519;28;20091;-75
2023/01/25 11:34:40;;;;;;;45.65;16.50;;;;;;;;;;5015497;28;20041;-73
2023/01/25 11:37:18;;;;;;;44.67;15.88;;;;;;;;;;5015825;28;20042;-78
2023/01/25 11:39:43;;;;;;;38.88;14.85;;;;;;;;;;4997584;28;20037;-74
2023/01/25 11:42:19;;;;;;;38.25;15.50;;;;;;;;;;5011318;28;20038;-79
2023/01/25 11:45:09;;;;;;;35.03;14.63;;;;;;;;;;5016409;28;20065;-75
2023/01/25 11:47:59;;;;;;;34.67;15.07;;;;;;;;;;5016462;28;20041;-74
2023/01/25 11:50:38;;;;;;;36.95;14.57;;;;;;;;;;5010664;28;20417;-75
2023/01/25 11:53:10;;;;;;;37.58;15.43;;;;;;;;;;5018603;28;20486;-75
2023/01/25 11:56:03;;;;;;;35.60;15.07;;;;;;;;;;5027492;28;20048;-74
2023/01/25 11:58:33;;;;;;;42.03;16.60;;;;;;;;;;5027619;28;20041;-73
2023/01/25 12:01:12;;;;;;;34.13;15.95;;;;;;;;;;5009846;28;20417;-74
2023/01/25 12:03:59;;;;;;;47.72;21.33;;;;;;;;;;5023336;28;20069;-75
2023/01/25 12:06:40;;;;;;;41.28;17.98;;;;;;;;;;5015753;28;20038;-78
2023/01/25 12:09:28;;;;;;;44.63;19.05;;;;;;;;;;5024987;28;20036;-75
2023/01/25 12:12:20;;;;;;;35.72;15.57;;;;;;;;;;5017980;28;20052;-74
2023/01/25 12:15:09;;;;;;;34.03;15.02;;;;;;;;;;5009582;28;20183;-74
2023/01/25 12:18:19;;;;;;;32.60;15.45;;;;;;;;;;5012518;28;20034;-74
2023/01/25 12:20:57;;;;;;;36.38;15.25;;;;;;;;;;5004401;28;20370;-74
2023/01/25 12:23:54;;;;;;;38.80;15.60;;;;;;;;;;5012123;28;20045;-75
2023/01/25 12:26:41;;;;;;;38.35;15.60;;;;;;;;;;4999168;28;20073;-74
2023/01/25 12:29:19;;;;;;;38.13;17.17;;;;;;;;;;5017912;28;20041;-78
2023/01/25 12:31:59;;;;;;;43.83;18.20;;;;;;;;;;5013473;28;20236;-74
2023/01/25 12:34:32;;;;;;;48.42;22.42;;;;;;;;;;5020566;28;20049;-73
2023/01/25 12:36:59;;;;;;;36.08;17.23;;;;;;;;;;5015233;28;20033;-73
2023/01/25 12:39:37;;;;;;;37.75;15.95;;;;;;;;;;5016275;28;20065;-73
2023/01/25 12:42:14;;;;;;;43.53;18.75;;;;;;;;;;5022108;28;20516;-75
2023/01/25 12:44:44;;;;;;;45.50;18.40;;;;;;;;;;5040718;28;20049;-73
2023/01/25 12:47:15;;;;;;;42.78;17.42;;;;;;;;;;5020886;28;20025;-73
2023/01/25 12:50:03;;;;;;;52.45;19.33;;;;;;;;;;5022042;28;20477;-73
2023/01/25 12:52:38;;;;;;;84.50;29.10;;;;;;;;;;5011162;28;20444;-75
2023/01/25 12:55:11;;;;;;;63.17;23.38;;;;;;;;;;5018048;28;20070;-74
2023/01/25 12:57:46;;;;;;;47.00;17.38;;;;;;;;;;5020432;28;20033;-73
2023/01/25 13:00:36;;;;;;;41.65;15.43;;;;;;;;;;5010896;28;20144;-74
2023/01/25 13:03:09;;;;;;;37.78;15.43;;;;;;;;;;5031638;28;20033;-73
2023/01/25 13:05:52;;;;;;;44.20;17.17;;;;;;;;;;5023062;28;20045;-74
2023/01/25 13:08:45;;;;;;;46.60;18.00;;;;;;;;;;5022793;28;20222;-74
2023/01/25 13:11:31;;;;;;;42.45;15.50;;;;;;;;;;5017561;28;20426;-74
2023/01/25 13:14:15;;;;;;;33.60;13.75;;;;;;;;;;5015342;28;20473;-73
2023/01/25 13:16:53;;;;;;;49.13;18.38;;;;;;;;;;5015540;28;20148;-74
2023/01/25 13:19:18;;;;;;;44.20;16.95;;;;;;;;;;5008854;28;20033;-73
2023/01/25 13:21:46;;;;;;;39.15;16.08;;;;;;;;;;5021977;28;20049;-74
2023/01/25 13:24:12;;;;;;;41.67;15.43;;;;;;;;;;5035568;28;20030;-73
2023/01/25 13:26:51;;;;;;;40.75;15.60;;;;;;;;;;5023700;28;20119;-73
2023/01/25 13:29:38;;;;;;;47.67;16.95;;;;;;;;;;5018996;28;20065;-74
2023/01/25 13:32:11;;;;;;;46.20;16.83;;;;;;;;;;5017701;28;20032;-74
2023/01/25 13:34:43;;;;;;;38.15;16.13;;;;;;;;;;5014738;28;20115;-74
2023/01/25 13:37:20;;;;;;;47.95;17.60;;;;;;;;;;5017212;28;20633;-73
2023/01/25 13:39:53;;;;;;;43.08;16.70;;;;;;;;;;5027452;28;20047;-73
2023/01/25 13:42:25;;;;;;;49.17;17.33;;;;;;;;;;5008276;28;20033;-73
2023/01/25 13:44:57;;;;;;;45.80;18.23;;;;;;;;;;5014403;28;20034;-74
2023/01/25 13:47:26;;;;;;;47.15;17.77;;;;;;;;;;5013232;28;20113;-74
2023/01/25 13:49:54;;;;;;;49.25;17.55;;;;;;;;;;5012281;28;20034;-73
2023/01/25 13:52:21;;;;;;;51.92;19.35;;;;;;;;;;5010313;28;20516;-73
2023/01/25 13:54:47;;;;;;;57.50;21.58;;;;;;;;;;5008918;28;20363;-74
2023/01/25 13:57:19;;;;;;;64.75;22.48;;;;;;;;;;5030536;28;20046;-73
2023/01/25 13:59:44;;;;;;;65.47;23.85;;;;;;;;;;5007173;28;20022;-74
2023/01/25 14:02:19;;;;;;;66.97;23.60;;;;;;;;;;5012517;28;20034;-74
2023/01/25 14:04:49;;;;;;;62.08;22.00;;;;;;;;;;5009813;28;20405;-73
2023/01/25 14:07:19;;;;;;;65.72;22.10;;;;;;;;;;5011990;28;20180;-73
2023/01/25 14:09:46;;;;;;;70.57;23.58;;;;;;;;;;5028283;28;20046;-73
2023/01/25 14:12:36;;;;;;;66.53;21.75;;;;;;;;;;5014086;28;20034;-73
2023/01/25 14:15:20;;;;;;;63.47;21.85;;;;;;;;;;5011191;28;20124;-74
2023/01/25 14:17:54;;;;;;;;;;;;;;;;;;5020860;28;20072;-76
2023/01/25 14:20:20;;;;;;;61.88;20.80;;;;;;;;;;5012048;28;19917;-74
2023/01/25 14:22:50;;;;;;;62.00;20.70;;;;;;;;;;5000450;28;20120;-79
2023/01/25 14:25:18;;;;;;;62.72;20.55;;;;;;;;;;5006348;28;20038;-74
2023/01/25 14:27:43;;;;;;;60.17;21.13;;;;;;;;;;5011465;28;20029;-74
2023/01/25 14:30:19;;;;;;;62.28;22.55;;;;;;;;;;5018098;28;20040;-74